In Rescue
 
Open Full Screen Window  High Contrast Mode
Wind Gusting 00 knots
07
October 25, 2021 4:04 PM CDT
Weather Information
Wind Direction
  110 °
Wind Speed
  07 kt (8 mph)
Wind Gust
  00 kt (0 mph)
Altimeter
30.11 in
Visibility
10 SM
Temperature
11° C
52° F
Dewpoint
-02° C
28° F
Humidity
41%
1hr Rain Fall
00.00 in.
24hr Rain Fall
00.00 in.
Sky Condition
Clear
VFR

METAR KULM 252104Z AUTO 11007KT 10SM CLR 11/M02 A3011 RMK AO2

FAA Disclaimer: The data displayed is for advisory purposes only and is not to be used for flight planning or operations.